createdAt,value
2024-02-19T00:00:51.900Z,119.01
2024-02-19T00:01:51.865Z,112.40
2024-02-19T00:02:51.830Z,110.46
2024-02-19T00:03:52.060Z,110.77
2024-02-19T00:04:52.029Z,111.89
2024-02-19T00:05:52.303Z,118.95
2024-02-19T00:06:52.157Z,114.23
2024-02-19T00:07:52.243Z,115.87
2024-02-19T00:08:52.376Z,118.05
2024-02-19T00:09:52.426Z,113.40
2024-02-19T00:10:52.381Z,112.54
2024-02-19T00:11:52.473Z,114.42
2024-02-19T00:12:52.513Z,111.99
2024-02-19T00:13:52.581Z,113.76
2024-02-19T00:14:52.630Z,115.80
2024-02-19T00:15:52.754Z,115.37
2024-02-19T00:16:52.764Z,114.76
2024-02-19T00:17:52.974Z,116.28
2024-02-19T00:18:53.136Z,116.47
2024-02-19T00:19:53.232Z,120.88
2024-02-19T00:20:53.046Z,117.62
2024-02-19T00:21:53.140Z,117.16
2024-02-19T00:22:53.183Z,116.90
2024-02-19T00:23:53.236Z,121.67
2024-02-19T00:24:53.350Z,119.11
2024-02-19T00:25:53.400Z,117.51
2024-02-19T00:26:53.455Z,116.01
2024-02-19T00:27:53.581Z,119.37
2024-02-19T00:28:53.591Z,122.02
2024-02-19T00:29:53.668Z,120.32
2024-02-19T00:30:53.739Z,114.91
2024-02-19T00:31:53.819Z,116.63
2024-02-19T00:32:53.968Z,115.51
2024-02-19T00:33:54.006Z,118.19
2024-02-19T00:34:54.045Z,117.46
2024-02-19T00:35:54.063Z,111.39
2024-02-19T00:36:54.182Z,110.17
2024-02-19T00:37:54.221Z,118.17
2024-02-19T00:38:54.286Z,112.32
2024-02-19T00:39:54.381Z,115.08
2024-02-19T00:40:54.408Z,109.70
2024-02-19T00:41:54.504Z,111.08
2024-02-19T00:42:54.644Z,118.02
2024-02-19T00:43:54.623Z,111.11
2024-02-19T00:44:54.671Z,113.45
2024-02-19T00:45:54.811Z,113.49
2024-02-19T00:46:54.822Z,111.58
2024-02-19T00:47:54.927Z,115.16
2024-02-19T00:48:55.189Z,113.09
2024-02-19T00:49:55.132Z,110.51
2024-02-19T00:50:55.094Z,112.03
2024-02-19T00:51:55.222Z,114.01
2024-02-19T00:52:55.224Z,114.01
2024-02-19T00:53:55.307Z,110.31
2024-02-19T00:54:55.424Z,116.12
2024-02-19T00:55:55.425Z,110.66
2024-02-19T00:56:55.498Z,115.38
2024-02-19T00:57:55.618Z,116.84
2024-02-19T00:58:55.645Z,111.42
2024-02-19T00:59:55.698Z,114.54
2024-02-19T01:00:55.870Z,113.50
2024-02-19T01:01:55.989Z,113.60
2024-02-19T01:02:55.904Z,115.01
2024-02-19T01:03:56.058Z,110.69
2024-02-19T01:04:56.134Z,112.32
2024-02-19T01:05:56.158Z,114.61
2024-02-19T01:06:56.275Z,116.05
2024-02-19T01:07:56.277Z,113.46
2024-02-19T01:08:56.317Z,114.91
2024-02-19T01:09:56.435Z,118.34
2024-02-19T01:10:56.545Z,111.29
2024-02-19T01:11:56.533Z,112.30
2024-02-19T01:12:56.594Z,108.58
2024-02-19T01:13:56.698Z,114.88
2024-02-19T01:14:56.716Z,116.30
2024-02-19T01:15:56.798Z,116.84
2024-02-19T01:16:56.864Z,108.15
2024-02-19T01:17:56.961Z,113.83
2024-02-19T01:18:57.026Z,115.20
2024-02-19T01:19:57.148Z,110.79
2024-02-19T01:20:57.120Z,110.12
2024-02-19T01:21:57.315Z,113.37
2024-02-19T01:22:57.277Z,111.95
2024-02-19T01:23:57.326Z,108.18
2024-02-19T01:24:57.432Z,111.82
2024-02-19T01:25:57.449Z,112.42
2024-02-19T01:26:57.543Z,112.94
2024-02-19T01:27:57.642Z,115.73
2024-02-19T01:28:57.667Z,111.90
2024-02-19T01:29:57.726Z,110.86
2024-02-19T01:30:57.846Z,115.98
2024-02-19T01:31:57.897Z,118.86
2024-02-19T01:32:57.967Z,109.08
2024-02-19T01:33:58.059Z,112.13
2024-02-19T01:34:58.230Z,110.46
2024-02-19T01:35:58.150Z,113.27
2024-02-19T01:36:58.213Z,114.26
2024-02-19T01:37:58.257Z,110.80
2024-02-19T01:38:58.328Z,110.02
2024-02-19T01:39:58.457Z,112.69
2024-02-19T01:40:58.458Z,108.68
2024-02-19T01:41:58.514Z,110.05
2024-02-19T01:42:58.634Z,112.07
2024-02-19T01:43:58.648Z,111.67
2024-02-19T01:44:58.770Z,110.63
2024-02-19T01:45:58.800Z,112.39
2024-02-19T01:46:58.855Z,113.32
2024-02-19T01:47:58.975Z,114.88
2024-02-19T01:48:59.073Z,108.54
2024-02-19T01:49:59.098Z,114.96
2024-02-19T01:50:59.139Z,111.56
2024-02-19T01:51:59.267Z,118.29
2024-02-19T01:52:59.327Z,114.04
2024-02-19T01:53:59.384Z,112.11
2024-02-19T01:54:59.392Z,110.77
2024-02-19T01:55:59.433Z,113.09
2024-02-19T01:56:59.516Z,110.38
2024-02-19T01:57:59.664Z,106.75
2024-02-19T01:58:59.636Z,112.44
2024-02-19T01:59:59.692Z,107.74
2024-02-19T02:00:59.965Z,106.27
2024-02-19T02:01:59.894Z,111.22
2024-02-19T02:02:59.960Z,110.61
2024-02-19T02:04:00.025Z,106.39
2024-02-19T02:05:00.066Z,110.34
2024-02-19T02:06:00.138Z,105.69
2024-02-19T02:07:00.234Z,108.67
2024-02-19T02:08:00.211Z,103.84
2024-02-19T02:09:00.684Z,104.18
2024-02-19T02:10:00.380Z,107.71
2024-02-19T02:11:00.411Z,101.31
2024-02-19T02:12:00.491Z,106.67
2024-02-19T02:13:00.637Z,105.93
2024-02-19T02:14:00.605Z,104.30
2024-02-19T02:15:00.664Z,105.77
2024-02-19T02:16:00.787Z,102.26
2024-02-19T02:17:00.788Z,99.00
2024-02-19T02:18:00.958Z,102.25
2024-02-19T02:19:00.997Z,99.93
2024-02-19T02:20:01.232Z,102.15
2024-02-19T02:21:01.045Z,103.86
2024-02-19T02:22:01.138Z,102.27
2024-02-19T02:23:01.176Z,101.18
2024-02-19T02:24:01.251Z,104.61
2024-02-19T02:25:01.325Z,104.86
2024-02-19T02:26:01.357Z,104.54
2024-02-19T02:27:01.422Z,100.78
2024-02-19T02:28:01.594Z,100.86
2024-02-19T02:29:01.572Z,101.95
2024-02-19T02:30:01.698Z,99.68
2024-02-19T02:31:01.763Z,102.46
2024-02-19T02:32:01.748Z,101.89
2024-02-19T02:33:01.935Z,100.27
2024-02-19T02:34:02.133Z,101.77
2024-02-19T02:35:01.984Z,103.89
2024-02-19T02:36:02.031Z,102.73
2024-02-19T02:37:02.104Z,104.79
2024-02-19T02:38:02.144Z,106.93
2024-02-19T02:39:02.204Z,101.27
2024-02-19T02:40:02.348Z,104.55
2024-02-19T02:41:02.320Z,102.54
2024-02-19T02:42:02.396Z,105.13
2024-02-19T02:43:02.500Z,107.65
2024-02-19T02:44:02.536Z,109.36
2024-02-19T02:45:02.596Z,111.34
2024-02-19T02:46:02.780Z,106.71
2024-02-19T02:47:02.714Z,106.76
2024-02-19T02:48:02.942Z,102.50
2024-02-19T02:49:02.985Z,104.18
2024-02-19T02:50:02.957Z,104.21
2024-02-19T02:51:02.976Z,100.74
2024-02-19T02:52:03.110Z,101.22
2024-02-19T02:53:03.133Z,102.37
2024-02-19T02:54:03.181Z,106.66
2024-02-19T02:55:03.357Z,99.10
2024-02-19T02:56:03.307Z,99.47
2024-02-19T02:57:03.390Z,100.35
2024-02-19T02:58:03.452Z,99.27
2024-02-19T02:59:03.520Z,98.37
2024-02-19T03:00:03.578Z,99.41
2024-02-19T03:01:03.672Z,98.46
2024-02-19T03:02:03.788Z,97.23
2024-02-19T03:03:03.778Z,100.59
2024-02-19T03:04:03.916Z,96.51
2024-02-19T03:05:03.955Z,100.21
2024-02-19T03:06:03.968Z,101.94
2024-02-19T03:07:04.260Z,94.73
2024-02-19T03:08:04.139Z,106.65
2024-02-19T03:09:04.197Z,101.48
2024-02-19T03:10:04.274Z,102.09
2024-02-19T03:11:04.340Z,105.51
2024-02-19T03:12:04.372Z,105.13
2024-02-19T03:13:04.520Z,104.38
2024-02-19T03:14:04.526Z,106.94
2024-02-19T03:15:04.603Z,104.24
2024-02-19T03:16:04.696Z,104.82
2024-02-19T03:17:04.708Z,104.60
2024-02-19T03:18:04.848Z,106.75
2024-02-19T03:19:04.872Z,108.88
2024-02-19T03:20:04.901Z,107.15
2024-02-19T03:21:04.973Z,106.12
2024-02-19T03:22:05.086Z,107.15
2024-02-19T03:23:05.124Z,104.56
2024-02-19T03:24:05.153Z,105.84
2024-02-19T03:25:05.280Z,108.52
2024-02-19T03:26:05.319Z,108.28
2024-02-19T03:27:05.438Z,107.27
2024-02-19T03:28:05.465Z,104.39
2024-02-19T03:29:05.502Z,100.05
2024-02-19T03:30:05.574Z,99.55
2024-02-19T03:31:05.703Z,102.59
2024-02-19T03:32:05.716Z,100.61
2024-02-19T03:33:05.847Z,104.09
2024-02-19T03:34:05.904Z,103.50
2024-02-19T03:35:05.926Z,103.38
2024-02-19T03:36:05.958Z,96.74
2024-02-19T03:37:06.059Z,98.08
2024-02-19T03:38:06.103Z,95.04
2024-02-19T03:39:06.308Z,96.83
2024-02-19T03:40:06.249Z,94.82
2024-02-19T03:41:06.289Z,96.81
2024-02-19T03:42:06.349Z,96.88
2024-02-19T03:43:06.442Z,100.07
2024-02-19T03:44:06.471Z,97.04
2024-02-19T03:45:06.550Z,93.33
2024-02-19T03:46:06.684Z,101.06
2024-02-19T03:47:06.671Z,95.87
2024-02-19T03:48:06.814Z,97.25
2024-02-19T03:49:06.889Z,96.86
2024-02-19T03:50:06.872Z,96.60
2024-02-19T03:51:06.941Z,92.84
2024-02-19T03:52:07.010Z,95.97
2024-02-19T03:53:07.052Z,89.69
2024-02-19T03:54:07.157Z,93.03
2024-02-19T03:55:07.231Z,91.63
2024-02-19T03:56:07.274Z,94.24
2024-02-19T03:57:07.307Z,92.81
2024-02-19T03:58:07.414Z,91.26
2024-02-19T03:59:07.435Z,86.04
2024-02-19T04:00:07.607Z,84.05
2024-02-19T04:01:08.667Z,86.13
2024-02-19T04:02:07.675Z,86.25
2024-02-19T04:03:07.723Z,82.96
2024-02-19T04:04:07.869Z,85.28
2024-02-19T04:05:07.861Z,84.35
2024-02-19T04:06:07.934Z,79.76
2024-02-19T04:07:08.009Z,77.42
2024-02-19T04:08:09.732Z,80.67
2024-02-19T04:09:08.091Z,80.67
2024-02-19T04:10:08.200Z,78.15
2024-02-19T04:11:08.258Z,82.46
2024-02-19T04:12:08.313Z,80.15
2024-02-19T04:13:08.443Z,83.45
2024-02-19T04:14:08.478Z,81.32
2024-02-19T04:15:08.514Z,84.54
2024-02-19T04:16:08.684Z,88.64
2024-02-19T04:17:08.655Z,87.02
2024-02-19T04:18:08.770Z,87.08
2024-02-19T04:19:08.869Z,85.76
2024-02-19T04:20:08.887Z,82.13
2024-02-19T04:21:08.979Z,85.95
2024-02-19T04:22:09.030Z,85.99
2024-02-19T04:23:09.069Z,83.30
2024-02-19T04:24:09.140Z,81.56
2024-02-19T04:25:09.257Z,80.68
2024-02-19T04:26:09.335Z,86.18
2024-02-19T04:27:09.362Z,80.29
2024-02-19T04:28:09.456Z,80.88
2024-02-19T04:29:09.506Z,86.85
2024-02-19T04:30:09.596Z,82.79
2024-02-19T04:31:09.699Z,76.93
2024-02-19T04:32:09.723Z,80.88
2024-02-19T04:33:09.962Z,74.79
2024-02-19T04:34:10.010Z,78.23
2024-02-19T04:35:10.038Z,77.51
2024-02-19T04:36:10.012Z,76.63
2024-02-19T04:37:10.204Z,77.50
2024-02-19T04:38:10.128Z,71.09
2024-02-19T04:39:10.190Z,69.97
2024-02-19T04:40:10.308Z,71.97
2024-02-19T04:41:10.343Z,73.63
2024-02-19T04:42:10.408Z,72.45
2024-02-19T04:43:10.563Z,80.43
2024-02-19T04:44:10.561Z,80.85
2024-02-19T04:45:10.650Z,81.90
2024-02-19T04:46:10.742Z,85.71
2024-02-19T04:47:10.760Z,85.45
2024-02-19T04:48:10.929Z,86.12
2024-02-19T04:49:11.053Z,87.45
2024-02-19T04:50:11.132Z,78.69
2024-02-19T04:51:11.038Z,82.13
2024-02-19T04:52:11.134Z,86.62
2024-02-19T04:53:13.224Z,76.26
2024-02-19T04:54:21.852Z,50.00
2024-02-19T04:55:21.967Z,50.00
2024-02-19T04:56:21.850Z,50.00
2024-02-19T04:57:21.832Z,50.00
2024-02-19T04:58:21.893Z,50.00
2024-02-19T04:59:21.827Z,51.44
2024-02-19T05:00:21.841Z,52.61
2024-02-19T05:01:21.919Z,56.57
2024-02-19T05:02:21.846Z,53.04
2024-02-19T05:03:21.839Z,50.79
2024-02-19T05:04:21.879Z,58.86
2024-02-19T05:05:21.885Z,51.38
2024-02-19T05:06:21.847Z,50.00
2024-02-19T05:07:21.882Z,60.89
2024-02-19T05:08:21.853Z,61.39
2024-02-19T05:09:21.848Z,50.00
2024-02-19T05:10:21.913Z,53.50
2024-02-19T05:11:21.897Z,55.68
2024-02-19T05:12:21.834Z,53.23
2024-02-19T05:13:21.911Z,56.73
2024-02-19T05:14:21.974Z,54.03
2024-02-19T05:15:22.045Z,53.41
2024-02-19T05:16:22.181Z,52.07
2024-02-19T05:17:22.209Z,55.16
2024-02-19T05:18:22.301Z,51.04
2024-02-19T05:19:22.465Z,55.55
2024-02-19T05:20:22.402Z,50.00
2024-02-19T05:21:22.474Z,53.38
2024-02-19T05:22:22.566Z,51.78
2024-02-19T05:23:22.615Z,52.26
2024-02-19T05:24:22.676Z,56.23
2024-02-19T05:25:22.792Z,54.11
2024-02-19T05:26:22.815Z,57.16
2024-02-19T05:27:22.880Z,52.61
2024-02-19T05:28:23.025Z,53.37
2024-02-19T05:29:23.022Z,50.71
2024-02-19T05:30:23.096Z,57.27
2024-02-19T05:31:23.263Z,56.89
2024-02-19T05:32:23.235Z,55.24
2024-02-19T05:33:23.340Z,55.17
2024-02-19T05:34:23.440Z,53.87
2024-02-19T05:35:23.464Z,50.68
2024-02-19T05:36:23.497Z,51.61
2024-02-19T05:37:23.622Z,52.10
2024-02-19T05:38:23.659Z,50.99
2024-02-19T05:39:23.723Z,50.00
2024-02-19T05:40:23.843Z,59.22
2024-02-19T05:41:23.859Z,52.36
2024-02-19T05:42:23.958Z,55.17
2024-02-19T05:43:24.078Z,57.54
2024-02-19T05:44:24.109Z,52.14
2024-02-19T05:45:24.126Z,53.66
2024-02-19T05:46:24.350Z,48.77
2024-02-19T05:47:24.307Z,61.82
2024-02-19T05:48:24.419Z,61.10
2024-02-19T05:49:24.583Z,57.36
2024-02-19T05:50:24.485Z,60.94
2024-02-19T05:51:24.658Z,56.03
2024-02-19T05:52:24.666Z,55.75
2024-02-19T05:53:24.733Z,60.65
2024-02-19T05:54:24.762Z,63.82
2024-02-19T05:55:24.870Z,52.65
2024-02-19T05:56:24.886Z,57.47
2024-02-19T05:57:25.051Z,57.48
2024-02-19T05:58:25.189Z,55.26
2024-02-19T05:59:25.125Z,50.85
2024-02-19T06:00:25.186Z,57.47
2024-02-19T06:01:25.479Z,55.07
2024-02-19T06:02:25.469Z,57.94
2024-02-19T06:03:25.349Z,53.49
2024-02-19T06:04:25.502Z,50.43
2024-02-19T06:05:25.573Z,60.20
2024-02-19T06:06:25.574Z,62.07
2024-02-19T06:07:25.630Z,63.00
2024-02-19T06:08:25.659Z,63.69
2024-02-19T06:09:25.708Z,67.17
2024-02-19T06:10:25.828Z,66.05
2024-02-19T06:11:25.837Z,67.28
2024-02-19T06:12:25.899Z,69.84
2024-02-19T06:13:26.115Z,73.36
2024-02-19T06:14:25.986Z,77.43
2024-02-19T06:15:26.023Z,77.27
2024-02-19T06:16:26.102Z,80.53
2024-02-19T06:17:26.186Z,86.71
2024-02-19T06:18:26.245Z,88.13
2024-02-19T06:19:26.309Z,89.00
2024-02-19T06:20:26.281Z,88.53
2024-02-19T06:21:26.329Z,87.28
2024-02-19T06:22:26.463Z,87.60
2024-02-19T06:23:26.432Z,90.46
2024-02-19T06:24:26.496Z,89.00
2024-02-19T06:25:26.597Z,90.20
2024-02-19T06:26:26.572Z,93.67
2024-02-19T06:27:26.618Z,93.02
2024-02-19T06:28:27.020Z,87.55
2024-02-19T06:29:26.727Z,86.64
2024-02-19T06:30:26.810Z,86.90
2024-02-19T06:31:26.861Z,91.66
2024-02-19T06:32:26.852Z,91.71
2024-02-19T06:33:27.103Z,95.19
2024-02-19T06:34:27.262Z,104.15
2024-02-19T06:35:27.170Z,110.31
2024-02-19T06:36:27.093Z,116.18
2024-02-19T06:37:27.175Z,125.41
2024-02-19T06:38:27.518Z,133.70
2024-02-19T06:39:27.287Z,137.84
2024-02-19T06:40:27.456Z,144.87
2024-02-19T06:41:27.433Z,150.95
2024-02-19T06:42:27.510Z,145.88
2024-02-19T06:43:28.094Z,151.71
2024-02-19T06:44:27.646Z,153.62
2024-02-19T06:45:27.707Z,157.69
2024-02-19T06:46:27.977Z,160.36
2024-02-19T06:47:27.892Z,160.84
2024-02-19T06:48:28.060Z,161.61
2024-02-19T06:49:28.014Z,157.72
2024-02-19T06:50:28.016Z,159.81
2024-02-19T06:51:28.088Z,156.76
2024-02-19T06:52:28.192Z,154.45
2024-02-19T06:53:28.229Z,150.51
2024-02-19T06:54:31.168Z,151.35
2024-02-19T06:55:28.294Z,148.49
2024-02-19T06:56:28.284Z,150.51
2024-02-19T06:57:28.280Z,150.52
2024-02-19T06:58:28.379Z,145.80
2024-02-19T06:59:28.289Z,152.20
2024-02-19T07:00:28.469Z,151.43
2024-02-19T07:01:28.467Z,150.17
2024-02-19T07:02:28.292Z,156.04
2024-02-19T07:03:28.453Z,152.31
2024-02-19T07:04:28.345Z,159.30
2024-02-19T07:05:28.359Z,156.17
2024-02-19T07:06:28.301Z,152.51
2024-02-19T07:07:28.346Z,156.34
2024-02-19T07:08:28.287Z,153.94
2024-02-19T07:09:28.304Z,156.75
2024-02-19T07:10:28.423Z,152.90
2024-02-19T07:11:28.317Z,154.64
2024-02-19T07:12:28.291Z,153.68
2024-02-19T07:13:28.522Z,160.63
2024-02-19T07:14:28.296Z,157.09
2024-02-19T07:15:28.291Z,147.93
2024-02-19T07:16:28.420Z,150.79
2024-02-19T07:17:28.436Z,148.64
2024-02-19T07:18:28.585Z,147.57
2024-02-19T07:19:28.708Z,145.15
2024-02-19T07:20:28.668Z,141.15
2024-02-19T07:21:28.669Z,143.64
2024-02-19T07:22:28.739Z,144.58
2024-02-19T07:23:28.734Z,140.53
2024-02-19T07:24:28.721Z,136.34
2024-02-19T07:25:28.776Z,141.47
2024-02-19T07:26:28.746Z,136.11
2024-02-19T07:27:28.762Z,137.32
2024-02-19T07:28:28.785Z,137.17
2024-02-19T07:29:28.775Z,139.33
2024-02-19T07:30:28.737Z,137.91
2024-02-19T07:31:28.825Z,135.98
2024-02-19T07:32:28.856Z,137.46
2024-02-19T07:33:29.154Z,132.00
2024-02-19T07:34:29.111Z,131.49
2024-02-19T07:35:28.955Z,132.76
2024-02-19T07:36:28.939Z,140.08
2024-02-19T07:37:29.045Z,150.48
2024-02-19T07:38:29.558Z,159.02
2024-02-19T07:39:29.018Z,166.00
2024-02-19T07:40:29.874Z,170.26
2024-02-19T07:41:29.266Z,171.96
2024-02-19T07:42:29.223Z,178.07
2024-02-19T07:43:29.403Z,180.07
2024-02-19T07:44:29.367Z,183.52
2024-02-19T07:45:29.395Z,188.35
2024-02-19T07:46:29.449Z,190.13
2024-02-19T07:47:29.463Z,191.27
2024-02-19T07:48:29.487Z,193.65
2024-02-19T07:49:29.601Z,196.34
2024-02-19T07:50:29.525Z,194.84
2024-02-19T07:51:29.560Z,196.89
2024-02-19T07:52:29.712Z,198.46
2024-02-19T07:53:29.708Z,194.65
2024-02-19T07:54:29.738Z,200.01
2024-02-19T07:55:29.863Z,197.42
2024-02-19T07:56:29.865Z,197.85
2024-02-19T07:57:29.946Z,200.00
2024-02-19T07:58:30.012Z,200.00
2024-02-19T07:59:30.041Z,195.77
2024-02-19T08:00:30.069Z,196.52
2024-02-19T08:01:30.239Z,198.74
2024-02-19T08:02:30.252Z,199.44
2024-02-19T08:03:30.568Z,199.18
2024-02-19T08:04:30.326Z,199.80
2024-02-19T08:05:30.469Z,200.00
2024-02-19T08:06:30.449Z,194.16
2024-02-19T08:07:30.468Z,191.68
2024-02-19T08:08:30.511Z,189.62
2024-02-19T08:09:30.597Z,179.32
2024-02-19T08:10:30.649Z,176.73
2024-02-19T08:11:30.623Z,174.73
2024-02-19T08:12:30.718Z,159.14
2024-02-19T08:13:30.787Z,160.10
2024-02-19T08:14:30.723Z,155.88
2024-02-19T08:15:30.686Z,149.46
2024-02-19T08:16:31.156Z,147.23
2024-02-19T08:17:30.792Z,140.22
2024-02-19T08:18:30.836Z,136.12
2024-02-19T08:19:30.861Z,136.59
2024-02-19T08:20:30.846Z,133.61
2024-02-19T08:21:30.901Z,131.45
2024-02-19T08:22:30.973Z,132.21
2024-02-19T08:23:31.016Z,131.62
2024-02-19T08:24:31.018Z,130.19
2024-02-19T08:25:31.154Z,130.66
2024-02-19T08:26:31.124Z,126.08
2024-02-19T08:27:31.202Z,125.63
2024-02-19T08:28:31.573Z,121.70
2024-02-19T08:29:31.277Z,123.49
2024-02-19T08:30:31.308Z,125.81
2024-02-19T08:31:31.379Z,127.26
2024-02-19T08:32:31.362Z,128.94
2024-02-19T08:33:31.376Z,127.24
2024-02-19T08:34:31.456Z,129.68
2024-02-19T08:35:31.620Z,132.64
2024-02-19T08:36:31.498Z,129.66
2024-02-19T08:37:31.633Z,125.39
2024-02-19T08:38:31.668Z,125.22
2024-02-19T08:39:31.692Z,119.97
2024-02-19T08:40:31.790Z,117.49
2024-02-19T08:41:31.816Z,115.36
2024-02-19T08:42:31.854Z,113.18
2024-02-19T08:43:32.128Z,104.85
2024-02-19T08:44:31.946Z,102.02
2024-02-19T08:45:35.909Z,94.93
2024-02-19T08:46:33.064Z,89.56
2024-02-19T08:47:32.013Z,85.10
2024-02-19T08:48:32.094Z,82.37
2024-02-19T08:49:32.074Z,79.05
2024-02-19T08:50:31.998Z,77.42
2024-02-19T08:51:32.053Z,77.25
2024-02-19T08:52:32.039Z,76.66
2024-02-19T08:53:32.008Z,76.47
2024-02-19T08:54:32.019Z,78.59
2024-02-19T08:55:32.126Z,79.09
2024-02-19T08:56:32.007Z,75.76
2024-02-19T08:57:32.049Z,76.30
2024-02-19T08:58:32.208Z,76.44
2024-02-19T08:59:32.031Z,75.93
2024-02-19T09:00:33.997Z,75.75
2024-02-19T09:01:32.126Z,76.99
2024-02-19T09:02:32.095Z,75.71
2024-02-19T09:03:32.237Z,72.03
2024-02-19T09:04:32.398Z,71.79
2024-02-19T09:05:32.290Z,70.91
2024-02-19T09:06:32.462Z,70.10
2024-02-19T09:07:32.452Z,70.91
2024-02-19T09:08:32.547Z,71.56
2024-02-19T09:09:32.562Z,73.44
2024-02-19T09:10:32.732Z,75.67
2024-02-19T09:11:32.734Z,75.56
2024-02-19T09:12:32.785Z,75.33
2024-02-19T09:13:32.877Z,74.73
2024-02-19T09:14:32.880Z,74.45
2024-02-19T09:15:32.965Z,73.88
2024-02-19T09:16:33.055Z,73.11
2024-02-19T09:17:33.133Z,72.93
2024-02-19T09:18:33.189Z,72.80
2024-02-19T09:19:33.330Z,70.07
2024-02-19T09:20:33.260Z,68.06
2024-02-19T09:21:33.312Z,69.38
2024-02-19T09:22:33.465Z,73.91
2024-02-19T09:23:33.477Z,74.77
2024-02-19T09:24:33.518Z,76.04
2024-02-19T09:25:33.752Z,81.37
2024-02-19T09:26:33.646Z,85.59
2024-02-19T09:27:33.692Z,90.32
2024-02-19T09:28:33.855Z,90.21
2024-02-19T09:29:35.561Z,92.54
2024-02-19T09:30:33.860Z,96.68
2024-02-19T09:31:33.966Z,101.94
2024-02-19T09:32:34.024Z,107.00
2024-02-19T09:33:34.024Z,111.13
2024-02-19T09:34:34.229Z,119.05
2024-02-19T09:35:34.043Z,123.93
2024-02-19T09:36:34.101Z,132.33
2024-02-19T09:37:34.186Z,133.35
2024-02-19T09:38:34.589Z,136.30
2024-02-19T09:39:34.556Z,136.30
2024-02-19T09:40:34.238Z,134.91
2024-02-19T09:41:34.226Z,135.54
2024-02-19T09:42:34.255Z,135.29
2024-02-19T09:43:34.579Z,135.18
2024-02-19T09:44:34.330Z,140.26
2024-02-19T09:45:34.320Z,136.05
2024-02-19T09:46:35.155Z,139.87
2024-02-19T09:47:34.352Z,138.56
2024-02-19T09:48:34.624Z,140.62
2024-02-19T09:49:34.494Z,144.23
2024-02-19T09:50:34.398Z,143.71
2024-02-19T09:51:40.709Z,143.08
2024-02-19T09:52:35.500Z,143.28
2024-02-19T09:53:34.421Z,143.53
2024-02-19T09:54:34.418Z,145.86
2024-02-19T09:55:34.467Z,148.10
2024-02-19T09:56:34.433Z,152.86
2024-02-19T09:57:34.412Z,156.31
2024-02-19T09:58:35.863Z,157.94
2024-02-19T09:59:34.598Z,151.72
2024-02-19T10:00:34.416Z,155.30
2024-02-19T10:01:34.493Z,157.79
2024-02-19T10:02:34.418Z,155.52
2024-02-19T10:03:34.402Z,163.75
2024-02-19T10:04:34.496Z,165.77
2024-02-19T10:05:34.473Z,170.22
2024-02-19T10:06:35.104Z,170.31
2024-02-19T10:07:34.494Z,173.58
2024-02-19T10:08:34.592Z,169.36
2024-02-19T10:09:34.408Z,164.07
2024-02-19T10:10:34.453Z,165.73
2024-02-19T10:11:34.430Z,158.53
2024-02-19T10:12:34.441Z,152.21
2024-02-19T10:13:34.479Z,155.75
2024-02-19T10:14:34.428Z,158.39
2024-02-19T10:15:34.409Z,160.97
2024-02-19T10:16:34.677Z,167.41
2024-02-19T10:17:34.517Z,172.07
2024-02-19T10:18:34.532Z,168.80
2024-02-19T10:19:34.454Z,174.00
2024-02-19T10:20:34.414Z,179.48
2024-02-19T10:21:34.423Z,180.22
2024-02-19T10:22:34.417Z,181.99
2024-02-19T10:23:34.470Z,189.45
2024-02-19T10:24:34.424Z,199.53
2024-02-19T10:25:34.440Z,198.38
2024-02-19T10:26:34.483Z,199.15
2024-02-19T10:27:34.440Z,197.95
2024-02-19T10:28:34.584Z,200.28
2024-02-19T10:29:34.434Z,199.68
2024-02-19T10:30:34.445Z,199.75
2024-02-19T10:31:34.442Z,200.00
2024-02-19T10:32:34.556Z,200.00
2024-02-19T10:33:34.636Z,199.33
2024-02-19T10:34:34.474Z,199.73
2024-02-19T10:35:34.454Z,199.89
2024-02-19T10:36:34.460Z,199.38
2024-02-19T10:37:34.459Z,198.51
2024-02-19T10:38:34.460Z,199.02
2024-02-19T10:39:34.468Z,197.46
2024-02-19T10:40:34.441Z,200.00
2024-02-19T10:41:34.448Z,199.20
2024-02-19T10:42:34.467Z,199.48
2024-02-19T10:43:34.459Z,198.31
2024-02-19T10:44:34.468Z,199.45
2024-02-19T10:45:34.481Z,199.54
2024-02-19T10:46:34.573Z,200.00
2024-02-19T10:47:34.569Z,198.16
2024-02-19T10:48:34.722Z,200.00
2024-02-19T10:49:34.747Z,197.47
2024-02-19T10:50:34.640Z,198.72
2024-02-19T10:51:34.633Z,198.29
2024-02-19T10:52:34.746Z,197.78
2024-02-19T10:53:34.659Z,197.23
2024-02-19T10:54:34.714Z,197.49
2024-02-19T10:55:45.512Z,198.05
2024-02-19T10:56:35.775Z,198.06
2024-02-19T10:57:34.715Z,198.09
2024-02-19T10:58:34.742Z,199.21
2024-02-19T10:59:34.743Z,199.30
2024-02-19T11:00:34.732Z,199.58
2024-02-19T11:01:34.794Z,197.92
2024-02-19T11:02:34.758Z,199.18
2024-02-19T11:03:34.750Z,199.65
2024-02-19T11:04:34.776Z,199.27
2024-02-19T11:05:34.785Z,197.38
2024-02-19T11:06:35.391Z,198.79
2024-02-19T11:07:34.714Z,199.41
2024-02-19T11:08:34.739Z,199.44
2024-02-19T11:09:34.819Z,200.00
2024-02-19T11:10:34.882Z,200.00
2024-02-19T11:11:34.781Z,198.16
2024-02-19T11:12:34.725Z,196.88
2024-02-19T11:13:34.783Z,196.66
2024-02-19T11:14:34.806Z,197.33
2024-02-19T11:15:34.726Z,197.99
2024-02-19T11:16:34.780Z,199.86
2024-02-19T11:17:34.757Z,199.38
2024-02-19T11:18:35.149Z,198.15
2024-02-19T11:19:34.784Z,198.05
2024-02-19T11:20:35.137Z,197.54
2024-02-19T11:21:34.741Z,197.00
2024-02-19T11:22:34.771Z,195.41
2024-02-19T11:23:34.754Z,194.06
2024-02-19T11:24:34.773Z,187.05
2024-02-19T11:25:35.173Z,178.40
2024-02-19T11:26:34.773Z,175.20
2024-02-19T11:27:34.750Z,170.09
2024-02-19T11:28:34.760Z,169.64
2024-02-19T11:29:42.943Z,167.48
2024-02-19T11:30:35.805Z,164.35
2024-02-19T11:31:34.783Z,160.36
2024-02-19T11:32:34.797Z,158.24
2024-02-19T11:33:34.756Z,158.73
2024-02-19T11:34:34.856Z,158.25
2024-02-19T11:35:36.592Z,161.27
2024-02-19T11:36:34.785Z,160.05
2024-02-19T11:37:34.849Z,162.80
2024-02-19T11:38:34.774Z,162.72
2024-02-19T11:39:34.785Z,161.25
2024-02-19T11:40:34.884Z,159.55
2024-02-19T11:41:34.779Z,160.98
2024-02-19T11:42:34.776Z,160.45
2024-02-19T11:43:34.862Z,161.52
2024-02-19T11:44:34.791Z,159.84
2024-02-19T11:45:34.820Z,160.72
2024-02-19T11:46:34.898Z,162.09
2024-02-19T11:47:34.923Z,159.96
2024-02-19T11:48:34.960Z,158.60
2024-02-19T11:49:35.003Z,157.10
2024-02-19T11:50:34.945Z,158.42
2024-02-19T11:51:34.965Z,156.34
2024-02-19T11:52:35.033Z,155.15
2024-02-19T11:53:35.024Z,153.78
2024-02-19T11:54:35.134Z,146.32
2024-02-19T11:55:35.477Z,142.02
2024-02-19T11:56:35.062Z,141.47
2024-02-19T11:57:35.115Z,137.11
2024-02-19T11:58:35.145Z,133.80
2024-02-19T11:59:35.141Z,129.94
2024-02-19T12:00:35.629Z,126.40
2024-02-19T12:01:35.281Z,126.05
2024-02-19T12:02:35.209Z,123.67
2024-02-19T12:03:35.212Z,123.74
2024-02-19T12:04:35.277Z,125.18
2024-02-19T12:05:35.309Z,126.96
2024-02-19T12:06:35.328Z,126.21
2024-02-19T12:07:35.391Z,128.88
2024-02-19T12:08:35.256Z,127.35
2024-02-19T12:09:35.281Z,129.15
2024-02-19T12:10:35.486Z,126.95
2024-02-19T12:11:35.409Z,127.94
2024-02-19T12:12:35.286Z,125.80
2024-02-19T12:13:35.420Z,128.54
2024-02-19T12:14:35.628Z,130.47
2024-02-19T12:15:35.308Z,131.52
2024-02-19T12:16:35.373Z,131.50
2024-02-19T12:17:35.323Z,131.17
2024-02-19T12:18:35.393Z,132.46
2024-02-19T12:19:35.746Z,133.45
2024-02-19T12:20:35.396Z,132.39
2024-02-19T12:21:35.377Z,133.00
2024-02-19T12:22:35.443Z,130.96
2024-02-19T12:23:35.421Z,131.12
2024-02-19T12:24:35.508Z,130.99
2024-02-19T12:25:35.511Z,128.90
2024-02-19T12:26:35.466Z,126.80
2024-02-19T12:27:35.513Z,126.12
2024-02-19T12:28:35.545Z,124.92
2024-02-19T12:29:35.522Z,123.50
2024-02-19T12:30:35.538Z,122.78
2024-02-19T12:31:35.598Z,120.87
2024-02-19T12:32:35.607Z,119.79
2024-02-19T12:33:35.656Z,117.91
2024-02-19T12:34:35.641Z,116.60
2024-02-19T12:35:36.530Z,115.21
2024-02-19T12:36:35.648Z,114.83